createdAt,value
2018-05-23T00:01:14.565Z,96939
2018-05-23T00:03:48.987Z,96938
2018-05-23T00:06:18.308Z,96937
2018-05-23T00:08:49.322Z,96932
2018-05-23T00:11:42.808Z,96940
2018-05-23T00:14:13.447Z,96939
2018-05-23T00:16:55.930Z,96933
2018-05-23T00:19:28.803Z,96931
2018-05-23T00:22:09.555Z,96931
2018-05-23T00:24:49.905Z,96935
2018-05-23T00:27:19.370Z,96930
2018-05-23T00:29:51.721Z,96925
2018-05-23T00:32:23.860Z,96927
2018-05-23T00:34:54.241Z,96924
2018-05-23T00:37:27.831Z,96920
2018-05-23T00:39:57.487Z,96921
2018-05-23T00:42:26.855Z,96916
2018-05-23T00:45:01.550Z,96922
2018-05-23T00:47:33.607Z,96922
2018-05-23T00:50:13.121Z,96925
2018-05-23T00:52:43.568Z,96924
2018-05-23T00:55:30.967Z,96923
2018-05-23T00:58:09.664Z,96922
2018-05-23T01:00:45.331Z,96927
2018-05-23T01:03:15.940Z,96923
2018-05-23T01:05:49.331Z,96923
2018-05-23T01:08:36.415Z,96927
2018-05-23T01:11:14.603Z,96924
2018-05-23T01:13:53.583Z,96923
2018-05-23T01:16:26.754Z,96920
2018-05-23T01:18:59.944Z,96919
2018-05-23T01:21:38.317Z,96918
2018-05-23T01:24:07.612Z,96916
2018-05-23T01:26:49.104Z,96921
2018-05-23T01:29:19.476Z,96914
2018-05-23T01:31:57.588Z,96917
2018-05-23T01:34:29.481Z,96917
2018-05-23T01:37:10.475Z,96915
2018-05-23T01:39:43.925Z,96917
2018-05-23T01:42:16.595Z,96920
2018-05-23T01:45:01.382Z,96921
2018-05-23T01:47:48.027Z,96918
2018-05-23T01:50:35.642Z,96916
2018-05-23T01:53:29.577Z,96920
2018-05-23T01:55:57.983Z,96924
2018-05-23T01:58:27.038Z,96926
2018-05-23T02:00:55.377Z,96928
2018-05-23T02:03:23.867Z,96933
2018-05-23T02:05:52.734Z,96935
2018-05-23T02:08:24.230Z,96941
2018-05-23T02:10:54.112Z,96948
2018-05-23T02:13:22.455Z,96956
2018-05-23T02:15:55.218Z,96958
2018-05-23T02:18:28.715Z,96958
2018-05-23T02:20:58.680Z,96961
2018-05-23T02:23:29.733Z,96961
2018-05-23T02:26:01.467Z,96959
2018-05-23T02:28:33.596Z,96964
2018-05-23T02:31:01.880Z,96968
2018-05-23T02:33:38.540Z,96962
2018-05-23T02:36:08.896Z,96966
2018-05-23T02:38:47.135Z,96964
2018-05-23T02:41:15.446Z,96962
2018-05-23T02:43:44.526Z,96965
2018-05-23T02:46:19.891Z,96968
2018-05-23T02:48:50.124Z,96968
2018-05-23T02:51:18.567Z,96974
2018-05-23T02:53:46.945Z,96980
2018-05-23T02:56:15.259Z,96985
2018-05-23T02:58:44.555Z,96982
2018-05-23T03:01:14.879Z,96986
2018-05-23T03:03:49.775Z,96987
2018-05-23T03:06:20.055Z,96985
2018-05-23T03:08:59.224Z,96988
2018-05-23T03:11:38.995Z,96990
2018-05-23T03:14:08.226Z,96992
2018-05-23T03:16:40.411Z,96990
2018-05-23T03:19:33.371Z,96993
2018-05-23T03:22:04.513Z,96993
2018-05-23T03:24:40.315Z,96998
2018-05-23T03:27:19.035Z,96996
2018-05-23T03:29:51.234Z,96990
2018-05-23T03:32:34.182Z,97001
2018-05-23T03:35:11.177Z,96997
2018-05-23T03:37:59.266Z,97004
2018-05-23T03:40:33.436Z,96989
2018-05-23T03:43:32.915Z,96991
2018-05-23T03:46:06.231Z,96990
2018-05-23T03:48:47.398Z,96989
2018-05-23T03:51:19.669Z,96997
2018-05-23T03:53:49.838Z,96995
2018-05-23T03:56:28.535Z,96991
2018-05-23T03:59:07.222Z,96995
2018-05-23T04:05:08.015Z,97000
2018-05-23T04:07:39.999Z,97004
2018-05-23T04:10:08.393Z,97004
2018-05-23T04:12:36.716Z,97008
2018-05-23T04:15:15.955Z,97008
2018-05-23T04:17:52.720Z,97004
2018-05-23T04:20:21.142Z,97008
2018-05-23T04:22:51.463Z,96999
2018-05-23T04:25:36.705Z,97005
2018-05-23T04:28:12.690Z,97000
2018-05-23T04:30:45.012Z,97005
2018-05-23T04:33:15.010Z,97006
2018-05-23T04:35:56.837Z,97001
2018-05-23T04:38:27.824Z,97006
2018-05-23T04:41:00.837Z,97012
2018-05-23T04:43:30.108Z,97017
2018-05-23T04:46:04.709Z,97019
2018-05-23T04:48:38.799Z,97025
2018-05-23T04:51:24.095Z,97028
2018-05-23T04:53:52.391Z,97031
2018-05-23T04:56:21.666Z,97031
2018-05-23T04:58:57.337Z,97034
2018-05-23T05:01:31.632Z,97035
2018-05-23T05:04:26.645Z,97033
2018-05-23T05:06:55.885Z,97043
2018-05-23T05:09:31.529Z,97042
2018-05-23T05:12:04.565Z,97036
2018-05-23T05:14:37.334Z,97042
2018-05-23T05:17:12.497Z,97041
2018-05-23T05:19:52.372Z,97045
2018-05-23T05:22:20.670Z,97043
2018-05-23T05:24:48.970Z,97045
2018-05-23T05:27:17.240Z,97046
2018-05-23T05:29:47.318Z,97053
2018-05-23T05:32:15.616Z,97048
2018-05-23T05:34:43.892Z,97051
2018-05-23T05:37:12.141Z,97059
2018-05-23T05:39:40.450Z,97056
2018-05-23T05:42:08.827Z,97054
2018-05-23T05:44:38.122Z,97065
2018-05-23T05:47:06.381Z,97061
2018-05-23T05:49:40.954Z,97063
2018-05-23T05:52:29.733Z,97065
2018-05-23T05:55:09.907Z,97067
2018-05-23T05:58:03.869Z,97065
2018-05-23T06:00:38.130Z,97068
2018-05-23T06:03:06.432Z,97071
2018-05-23T06:05:54.939Z,97073
2018-05-23T06:08:23.296Z,97073
2018-05-23T06:10:51.595Z,97080
2018-05-23T06:13:30.008Z,97080
2018-05-23T06:16:02.210Z,97089
2018-05-23T06:18:36.234Z,97097
2018-05-23T06:21:06.227Z,97093
2018-05-23T06:23:38.417Z,97104
2018-05-23T06:26:08.414Z,97100
2018-05-23T06:28:46.774Z,97101
2018-05-23T06:31:16.004Z,97102
2018-05-23T06:33:52.211Z,97111
2018-05-23T06:36:23.031Z,97107
2018-05-23T06:38:56.155Z,97117
2018-05-23T06:41:30.015Z,97123
2018-05-23T06:43:59.889Z,97128
2018-05-23T06:46:32.335Z,97130
2018-05-23T06:49:04.499Z,97131
2018-05-23T06:51:35.546Z,97131
2018-05-23T06:54:09.547Z,97137
2018-05-23T06:59:46.347Z,97143
2018-05-23T07:02:19.287Z,97147
2018-05-23T07:04:49.575Z,97140
2018-05-23T07:07:18.920Z,97141
2018-05-23T07:09:49.183Z,97145
2018-05-23T07:12:28.861Z,97148
2018-05-23T07:14:57.220Z,97148
2018-05-23T07:17:37.416Z,97151
2018-05-23T07:20:06.724Z,97157
2018-05-23T07:22:36.439Z,97158
2018-05-23T07:25:05.800Z,97160
2018-05-23T07:27:37.622Z,97155
2018-05-23T07:30:06.960Z,97158
2018-05-23T07:32:59.327Z,97163
2018-05-23T07:35:34.460Z,97160
2018-05-23T07:38:15.382Z,97158
2018-05-23T07:43:55.020Z,97165
2018-05-23T07:46:29.147Z,97161
2018-05-23T07:48:58.478Z,97160
2018-05-23T07:51:33.567Z,97160
2018-05-23T07:54:15.912Z,97168
2018-05-23T07:56:45.017Z,97167
2018-05-23T07:59:13.340Z,97169
2018-05-23T08:01:41.600Z,97169
2018-05-23T08:04:10.039Z,97169
2018-05-23T08:06:39.076Z,97173
2018-05-23T08:09:07.375Z,97169
2018-05-23T08:11:36.454Z,97173
2018-05-23T08:14:05.765Z,97172
2018-05-23T08:16:34.145Z,97172
2018-05-23T08:19:02.438Z,97175
2018-05-23T08:21:49.032Z,97173
2018-05-23T08:24:19.385Z,97170
2018-05-23T08:27:07.499Z,97172
2018-05-23T08:30:04.625Z,97168
2018-05-23T08:32:33.880Z,97167
2018-05-23T08:35:06.046Z,97167
2018-05-23T08:37:36.902Z,97172
2018-05-23T08:40:06.356Z,97171
2018-05-23T08:42:52.539Z,97177
2018-05-23T08:45:46.692Z,97171
2018-05-23T08:48:26.192Z,97171
2018-05-23T08:51:18.272Z,97170
2018-05-23T08:53:58.737Z,97165
2018-05-23T08:56:32.675Z,97169
2018-05-23T08:59:02.744Z,97171
2018-05-23T09:01:34.357Z,97169
2018-05-23T09:04:08.203Z,97170
2018-05-23T09:06:36.522Z,97170
2018-05-23T09:09:16.534Z,97171
2018-05-23T09:11:45.980Z,97169
2018-05-23T09:14:15.287Z,97171
2018-05-23T09:16:49.242Z,97163
2018-05-23T09:19:30.748Z,97164
2018-05-23T09:25:00.520Z,97168
2018-05-23T09:27:30.882Z,97170
2018-05-23T09:30:03.892Z,97175
2018-05-23T09:32:34.212Z,97172
2018-05-23T09:35:03.370Z,97173
2018-05-23T09:37:57.025Z,97168
2018-05-23T09:40:25.329Z,97171
2018-05-23T09:43:01.151Z,97170
2018-05-23T09:45:34.243Z,97177
2018-05-23T09:48:02.544Z,97169
2018-05-23T09:50:41.468Z,97168
2018-05-23T09:53:18.949Z,97172
2018-05-23T09:55:48.777Z,97175
2018-05-23T09:58:18.419Z,97170
2018-05-23T10:00:52.732Z,97175
2018-05-23T10:03:24.341Z,97175
2018-05-23T10:05:54.684Z,97172
2018-05-23T10:08:36.432Z,97167
2018-05-23T10:11:09.439Z,97162
2018-05-23T10:13:37.723Z,97166
2018-05-23T10:16:10.112Z,97159
2018-05-23T10:18:40.088Z,97162
2018-05-23T10:21:24.961Z,97162
2018-05-23T10:24:18.396Z,97157
2018-05-23T10:26:54.852Z,97161
2018-05-23T10:29:34.613Z,97164
2018-05-23T10:32:24.267Z,97160
2018-05-23T10:34:54.572Z,97157
2018-05-23T10:37:27.145Z,97147
2018-05-23T10:39:58.720Z,97145
2018-05-23T10:42:30.400Z,97137
2018-05-23T10:45:08.716Z,97140
2018-05-23T10:47:56.789Z,97141
2018-05-23T10:50:30.588Z,97137
2018-05-23T10:53:12.646Z,97134
2018-05-23T10:55:46.355Z,97126
2018-05-23T10:58:21.910Z,97131
2018-05-23T11:00:56.736Z,97127
2018-05-23T11:03:28.823Z,97126
2018-05-23T11:09:03.096Z,97118
2018-05-23T11:11:37.040Z,97115
2018-05-23T11:14:05.998Z,97111
2018-05-23T11:16:37.033Z,97113
2018-05-23T11:19:11.350Z,97110
2018-05-23T11:21:41.680Z,97108
2018-05-23T11:24:31.960Z,97101
2018-05-23T11:27:15.028Z,97106
2018-05-23T11:29:57.180Z,97105
2018-05-23T11:32:27.518Z,97107
2018-05-23T11:35:03.563Z,97104
2018-05-23T11:37:46.077Z,97103
2018-05-23T11:40:24.202Z,97098
2018-05-23T11:43:09.644Z,97099
2018-05-23T11:45:45.080Z,97097
2018-05-23T11:48:14.608Z,97098
2018-05-23T11:50:43.912Z,97095
2018-05-23T11:53:36.299Z,97088
2018-05-23T11:56:23.955Z,97088
2018-05-23T11:58:53.570Z,97088
2018-05-23T12:01:24.389Z,97081
2018-05-23T12:03:56.102Z,97075
2018-05-23T12:06:30.136Z,97075
2018-05-23T12:09:09.231Z,97074
2018-05-23T12:11:41.247Z,97074
2018-05-23T12:14:16.623Z,97065
2018-05-23T12:16:53.390Z,97061
2018-05-23T12:19:23.892Z,97060
2018-05-23T12:21:54.473Z,97060
2018-05-23T12:24:36.211Z,97059
2018-05-23T12:27:06.950Z,97055
2018-05-23T12:29:35.343Z,97063
2018-05-23T12:32:09.602Z,97059
2018-05-23T12:34:57.551Z,97048
2018-05-23T12:37:29.519Z,97058
2018-05-23T12:40:15.683Z,97052
2018-05-23T12:45:53.362Z,97052
2018-05-23T12:48:29.440Z,97043
2018-05-23T12:51:01.503Z,97046
2018-05-23T12:53:34.319Z,97051
2018-05-23T12:56:02.996Z,97041
2018-05-23T12:58:35.597Z,97041
2018-05-23T13:01:07.742Z,97038
2018-05-23T13:03:38.149Z,97034
2018-05-23T13:06:11.087Z,97031
2018-05-23T13:08:40.578Z,97027
2018-05-23T13:11:14.590Z,97030
2018-05-23T13:13:53.993Z,97023
2018-05-23T13:16:23.291Z,97021
2018-05-23T13:18:51.611Z,97022
2018-05-23T13:21:28.117Z,97014
2018-05-23T13:24:01.031Z,97011
2018-05-23T13:29:45.029Z,97010
2018-05-23T13:32:25.163Z,97002
2018-05-23T13:34:55.591Z,96997
2018-05-23T13:37:49.554Z,96992
2018-05-23T13:40:22.465Z,96997
2018-05-23T13:43:00.882Z,96987
2018-05-23T13:45:31.343Z,96989
2018-05-23T13:48:01.368Z,96979
2018-05-23T13:50:30.074Z,96971
2018-05-23T13:52:58.367Z,96971
2018-05-23T13:55:27.748Z,96973
2018-05-23T13:57:58.712Z,96969
2018-05-23T14:00:27.193Z,96969
2018-05-23T14:02:56.489Z,96974
2018-05-23T14:05:29.823Z,96976
2018-05-23T14:08:07.899Z,96972
2018-05-23T14:10:42.907Z,96974
2018-05-23T14:13:22.625Z,96969
2018-05-23T14:15:51.987Z,96970
2018-05-23T14:18:24.704Z,96965
2018-05-23T14:20:56.337Z,96960
2018-05-23T14:23:28.883Z,96959
2018-05-23T14:26:02.634Z,96951
2018-05-23T14:28:32.994Z,96953
2018-05-23T14:31:01.170Z,96951
2018-05-23T14:33:29.506Z,96948
2018-05-23T14:35:57.742Z,96946
2018-05-23T14:38:25.993Z,96944
2018-05-23T14:40:55.004Z,96941
2018-05-23T14:43:23.378Z,96936
2018-05-23T14:45:54.955Z,96937
2018-05-23T14:48:31.600Z,96938
2018-05-23T14:51:10.699Z,96938
2018-05-23T14:54:10.320Z,96941
2018-05-23T14:56:45.267Z,96935
2018-05-23T14:59:21.024Z,96938
2018-05-23T15:02:00.944Z,96935
2018-05-23T15:04:36.012Z,96933
2018-05-23T15:07:17.508Z,96928
2018-05-23T15:09:45.801Z,96925
2018-05-23T15:12:25.795Z,96932
2018-05-23T15:15:05.729Z,96932
2018-05-23T15:17:35.798Z,96936
2018-05-23T15:20:15.145Z,96933
2018-05-23T15:22:45.011Z,96936
2018-05-23T15:25:13.324Z,96929
2018-05-23T15:27:43.566Z,96932
2018-05-23T15:30:17.450Z,96930
2018-05-23T15:33:09.378Z,96926
2018-05-23T15:35:45.455Z,96927
2018-05-23T15:38:19.319Z,96924
2018-05-23T15:40:49.576Z,96920
2018-05-23T15:43:30.330Z,96920
2018-05-23T15:46:04.485Z,96921
2018-05-23T15:48:37.077Z,96918
2018-05-23T15:51:11.132Z,96923
2018-05-23T15:53:58.839Z,96917
2018-05-23T15:56:30.333Z,96915
2018-05-23T15:59:04.079Z,96903
2018-05-23T16:01:37.081Z,96917
2018-05-23T16:04:21.976Z,96915
2018-05-23T16:07:11.384Z,96909
2018-05-23T16:09:40.755Z,96904
2018-05-23T16:12:22.387Z,96903
2018-05-23T16:14:51.273Z,96904
2018-05-23T16:17:19.551Z,96900
2018-05-23T16:19:49.797Z,96909
2018-05-23T16:22:18.204Z,96909
2018-05-23T16:24:50.699Z,96904
2018-05-23T16:27:26.187Z,96903
2018-05-23T16:29:57.243Z,96906
2018-05-23T16:32:37.910Z,96899
2018-05-23T16:35:10.358Z,96896
2018-05-23T16:37:38.625Z,96904
2018-05-23T16:40:11.180Z,96900
2018-05-23T16:42:40.040Z,96896
2018-05-23T16:45:10.195Z,96896
2018-05-23T16:47:39.365Z,96893
2018-05-23T16:50:07.839Z,96896
2018-05-23T16:52:44.656Z,96893
2018-05-23T16:55:14.010Z,96894
2018-05-23T16:57:43.262Z,96899
2018-05-23T17:00:11.611Z,96901
2018-05-23T17:02:40.926Z,96900
2018-05-23T17:05:09.209Z,96898
2018-05-23T17:07:38.267Z,96898
2018-05-23T17:10:07.599Z,96902
2018-05-23T17:12:36.945Z,96898
2018-05-23T17:15:07.079Z,96896
2018-05-23T17:17:37.405Z,96906
2018-05-23T17:20:10.266Z,96902
2018-05-23T17:22:41.343Z,96896
2018-05-23T17:25:11.620Z,96907
2018-05-23T17:27:43.654Z,96907
2018-05-23T17:30:15.344Z,96909
2018-05-23T17:32:49.691Z,96906
2018-05-23T17:35:29.437Z,96918
2018-05-23T17:37:59.743Z,96915
2018-05-23T17:40:28.799Z,96914
2018-05-23T17:42:58.117Z,96915
2018-05-23T17:45:31.354Z,96923
2018-05-23T17:48:01.627Z,96928
2018-05-23T17:50:31.709Z,96928
2018-05-23T17:53:01.084Z,96932
2018-05-23T17:55:33.430Z,96933
2018-05-23T17:58:07.255Z,96938
2018-05-23T18:00:41.988Z,96936
2018-05-23T18:03:11.077Z,96938
2018-05-23T18:05:47.607Z,96938
2018-05-23T18:08:15.899Z,96939
2018-05-23T18:10:48.743Z,96937
2018-05-23T18:13:48.732Z,96948
2018-05-23T18:16:29.959Z,96939
2018-05-23T18:19:08.883Z,96938
2018-05-23T18:21:43.256Z,96947
2018-05-23T18:24:12.411Z,96952
2018-05-23T18:26:40.695Z,96951
2018-05-23T18:29:09.054Z,96962
2018-05-23T18:31:41.052Z,96963
2018-05-23T18:34:12.872Z,96965
2018-05-23T18:36:51.103Z,96968
2018-05-23T18:39:19.378Z,96974
2018-05-23T18:41:49.596Z,96976
2018-05-23T18:44:18.171Z,96979
2018-05-23T18:46:48.426Z,96983
2018-05-23T18:49:22.948Z,96980
2018-05-23T18:51:52.223Z,96984
2018-05-23T18:54:33.693Z,96985
2018-05-23T18:57:05.095Z,96984
2018-05-23T18:59:47.110Z,96990
2018-05-23T19:02:25.136Z,96993
2018-05-23T19:05:00.144Z,96989
2018-05-23T19:07:39.949Z,96988
2018-05-23T19:10:08.374Z,96985
2018-05-23T19:12:56.661Z,96986
2018-05-23T19:15:25.910Z,96992
2018-05-23T19:18:01.493Z,96994
2018-05-23T19:20:30.846Z,96997
2018-05-23T19:22:59.936Z,96995
2018-05-23T19:25:28.688Z,97000
2018-05-23T19:27:57.004Z,97006
2018-05-23T19:30:25.263Z,97011
2018-05-23T19:32:54.239Z,97014
2018-05-23T19:35:24.528Z,97020
2018-05-23T19:37:53.816Z,97025
2018-05-23T19:40:25.496Z,97021
2018-05-23T19:42:54.829Z,97027
2018-05-23T19:45:24.117Z,97030
2018-05-23T19:47:54.389Z,97036
2018-05-23T19:50:23.457Z,97038
2018-05-23T19:52:57.737Z,97040
2018-05-23T19:55:31.562Z,97045
2018-05-23T19:58:08.250Z,97053
2018-05-23T20:00:47.177Z,97059
2018-05-23T20:03:21.309Z,97054
2018-05-23T20:05:49.560Z,97050
2018-05-23T20:08:34.461Z,97047
2018-05-23T20:11:09.522Z,97047
2018-05-23T20:13:49.223Z,97048
2018-05-23T20:16:18.307Z,97056
2018-05-23T20:18:48.536Z,97057
2018-05-23T20:21:18.637Z,97053
2018-05-23T20:23:47.844Z,97057
2018-05-23T20:26:18.169Z,97062
2018-05-23T20:28:47.496Z,97055
2018-05-23T20:31:17.795Z,97052
2018-05-23T20:33:48.260Z,97058
2018-05-23T20:36:18.351Z,97051
2018-05-23T20:38:52.271Z,97055
2018-05-23T20:41:25.011Z,97062
2018-05-23T20:43:54.384Z,97061
2018-05-23T20:46:26.450Z,97070
2018-05-23T20:48:58.171Z,97077
2018-05-23T20:51:28.497Z,97077
2018-05-23T20:53:57.577Z,97081
2018-05-23T20:56:25.959Z,97084
2018-05-23T20:58:58.208Z,97087
2018-05-23T21:01:27.279Z,97080
2018-05-23T21:04:00.085Z,97089
2018-05-23T21:06:29.440Z,97107
2018-05-23T21:09:00.434Z,97117
2018-05-23T21:11:39.523Z,97124
2018-05-23T21:14:07.876Z,97123
2018-05-23T21:16:50.832Z,97126
2018-05-23T21:19:22.323Z,97127
2018-05-23T21:21:54.243Z,97124
2018-05-23T21:24:23.596Z,97116
2018-05-23T21:27:02.447Z,97113
2018-05-23T21:29:31.495Z,97116
2018-05-23T21:32:10.182Z,97115
2018-05-23T21:34:45.832Z,97116
2018-05-23T21:37:20.704Z,97118
2018-05-23T21:39:53.784Z,97115
2018-05-23T21:42:22.096Z,97107
2018-05-23T21:44:53.845Z,97109
2018-05-23T21:47:23.276Z,97107
2018-05-23T21:49:54.295Z,97097
2018-05-23T21:52:25.775Z,97095
2018-05-23T21:55:07.919Z,97096
2018-05-23T21:57:39.544Z,97094
2018-05-23T22:00:12.419Z,97100
2018-05-23T22:03:00.057Z,97105
2018-05-23T22:05:33.176Z,97109
2018-05-23T22:08:05.817Z,97112
2018-05-23T22:10:35.098Z,97112
2018-05-23T22:13:05.250Z,97116
2018-05-23T22:15:35.448Z,97114
2018-05-23T22:18:09.909Z,97120
2018-05-23T22:20:38.927Z,97127
2018-05-23T22:23:13.526Z,97129
2018-05-23T22:25:59.341Z,97130
2018-05-23T22:28:38.079Z,97131
2018-05-23T22:31:08.484Z,97133
2018-05-23T22:33:42.787Z,97131
2018-05-23T22:36:29.104Z,97129
2018-05-23T22:39:02.657Z,97140
2018-05-23T22:41:32.002Z,97142
2018-05-23T22:44:07.074Z,97138
2018-05-23T22:46:43.113Z,97140
2018-05-23T22:49:17.502Z,97137
2018-05-23T22:51:54.452Z,97138
2018-05-23T22:54:22.830Z,97133
2018-05-23T22:56:52.074Z,97137
2018-05-23T22:59:22.318Z,97134
2018-05-23T23:01:52.640Z,97139
2018-05-23T23:04:28.271Z,97142
2018-05-23T23:07:12.004Z,97139
2018-05-23T23:09:43.723Z,97142
2018-05-23T23:12:13.019Z,97150
2018-05-23T23:14:43.080Z,97154
2018-05-23T23:17:12.297Z,97152
2018-05-23T23:19:45.483Z,97163
2018-05-23T23:22:35.276Z,97168
2018-05-23T23:25:06.319Z,97176
2018-05-23T23:27:36.556Z,97180
2018-05-23T23:30:12.262Z,97184
2018-05-23T23:32:47.666Z,97193
2018-05-23T23:35:25.702Z,97193
2018-05-23T23:38:21.280Z,97202
2018-05-23T23:40:54.095Z,97210
2018-05-23T23:43:38.890Z,97208
2018-05-23T23:46:13.920Z,97211
2018-05-23T23:49:12.315Z,97209
2018-05-23T23:51:46.032Z,97201
2018-05-23T23:54:26.415Z,97204
2018-05-23T23:57:03.320Z,97211
2018-05-23T23:59:36.430Z,97214
